Time;durP1;ratioP1;P1;durP2;ratioP2;P2;SDS_P1;SDS_P2;PMS_P1;PMS_P2;Temp;Humidity;BMP_temperature;BMP_pressure;BME280_temperature;BME280_humidity;BME280_pressure;Samples;Min_cycle;Max_cycle;Signal;HPM_P1;HPM_P2
2022/03/14 00:02:04;;;;;;;3.47;2.40;;;;;;;20.49;40.28;101745.59;5024189;28;20071;-41
2022/03/14 00:04:31;;;;;;;2.63;1.90;;;;;;;20.49;40.25;101739.34;5023911;28;20340;-39
2022/03/14 00:06:57;;;;;;;2.25;1.88;;;;;;;20.47;40.04;101736.78;5027239;28;20063;-40
2022/03/14 00:09:24;;;;;;;2.45;1.90;;;;;;;20.44;40.08;101740.63;5025584;28;20355;-40
2022/03/14 00:11:54;;;;;;;3.70;2.00;;;;;;;20.44;39.87;101747.84;5024841;28;20060;-40
2022/03/14 00:14:25;;;;;;;3.15;2.22;;;;;;;20.42;40.42;101749.81;5026619;28;20045;-40
2022/03/14 00:16:54;;;;;;;3.80;2.10;;;;;;;20.41;40.66;101742.75;5026529;28;20373;-41
2022/03/14 00:19:21;;;;;;;3.13;2.30;;;;;;;20.40;39.94;101749.13;5028643;28;20439;-39
2022/03/14 00:21:49;;;;;;;3.35;2.17;;;;;;;20.39;40.25;101751.00;5026593;28;20057;-38
2022/03/14 00:24:15;;;;;;;2.60;2.08;;;;;;;20.38;40.25;101745.72;5030987;28;20100;-40
2022/03/14 00:26:42;;;;;;;2.47;1.98;;;;;;;20.36;40.30;101756.66;5022805;28;20136;-40
2022/03/14 00:29:08;;;;;;;2.33;1.95;;;;;;;20.34;40.39;101753.28;5021734;28;20435;-39
2022/03/14 00:31:36;;;;;;;2.50;1.77;;;;;;;20.32;40.34;101760.66;5024757;28;20132;-40
2022/03/14 00:34:03;;;;;;;2.42;1.80;;;;;;;20.32;40.09;101760.66;5028004;28;20049;-39
2022/03/14 00:36:29;;;;;;;1.95;1.63;;;;;;;20.31;40.58;101761.66;5026546;28;20136;-40
2022/03/14 00:38:56;;;;;;;2.53;1.95;;;;;;;20.29;39.87;101760.94;5025417;28;20064;-40
2022/03/14 00:41:23;;;;;;;3.63;2.10;;;;;;;20.29;40.05;101770.84;5022765;28;20337;-40
2022/03/14 00:43:49;;;;;;;3.08;1.88;;;;;;;20.27;40.45;101768.31;5027660;28;20750;-40
2022/03/14 00:46:17;;;;;;;2.38;2.00;;;;;;;20.25;39.95;101767.59;5025653;28;20051;-40
2022/03/14 00:48:45;;;;;;;2.63;1.83;;;;;;;20.25;40.11;101772.13;5019840;28;20045;-40
2022/03/14 00:51:11;;;;;;;1.90;1.40;;;;;;;20.20;40.70;101773.44;5027895;28;20041;-40
2022/03/14 00:53:38;;;;;;;1.95;1.75;;;;;;;20.21;40.55;101783.19;5027959;28;20041;-40
2022/03/14 00:56:06;;;;;;;2.38;1.67;;;;;;;20.22;40.40;101773.25;5025371;28;20049;-40
2022/03/14 00:58:33;;;;;;;2.55;1.77;;;;;;;20.20;40.63;101781.50;5027669;28;20052;-40
2022/03/14 01:01:01;;;;;;;3.05;1.98;;;;;;;20.20;40.31;101780.66;5024290;28;20053;-40
2022/03/14 01:03:28;;;;;;;2.78;1.67;;;;;;;20.18;40.55;101780.81;5028979;28;20065;-40
2022/03/14 01:05:55;;;;;;;2.97;1.90;;;;;;;20.18;39.93;101793.41;5028802;28;20045;-40
2022/03/14 01:08:21;;;;;;;2.42;1.77;;;;;;;20.17;40.51;101800.63;5026501;28;20045;-40
2022/03/14 01:10:48;;;;;;;2.20;1.60;;;;;;;20.17;39.92;101806.00;5031120;28;20492;-40
2022/03/14 01:13:14;;;;;;;2.83;1.85;;;;;;;20.14;40.47;101800.94;5028937;28;20051;-40
2022/03/14 01:15:41;;;;;;;2.50;1.50;;;;;;;20.13;40.39;101809.97;5029433;28;20056;-40
2022/03/14 01:18:08;;;;;;;3.65;1.55;;;;;;;20.14;40.59;101810.81;5025937;28;20045;-40
2022/03/14 01:20:34;;;;;;;2.28;1.58;;;;;;;20.12;40.10;101804.75;5030001;28;20037;-40
2022/03/14 01:23:01;;;;;;;2.33;1.67;;;;;;;20.11;39.92;101811.97;5031334;28;20084;-40
2022/03/14 01:25:27;;;;;;;2.25;1.58;;;;;;;20.11;40.38;101811.13;5025037;28;20044;-39
2022/03/14 01:27:54;;;;;;;2.22;1.58;;;;;;;20.10;40.17;101812.09;5031430;28;20061;-39
2022/03/14 01:30:22;;;;;;;2.20;1.50;;;;;;;20.08;40.54;101812.25;5029911;28;20048;-40
2022/03/14 01:32:49;;;;;;;1.80;1.42;;;;;;;20.09;39.83;101813.09;5026476;28;20046;-40
2022/03/14 01:35:19;;;;;;;2.60;1.80;;;;;;;20.06;39.88;101819.66;5029023;28;20053;-40
2022/03/14 01:37:49;;;;;;;2.03;1.55;;;;;;;20.04;39.80;101810.84;5028309;28;20132;-40
2022/03/14 01:40:19;;;;;;;1.95;1.50;;;;;;;20.03;39.93;101822.63;5029949;28;20053;-40
2022/03/14 01:42:46;;;;;;;1.40;1.27;;;;;;;20.03;40.40;101821.78;5023702;28;20043;-40
2022/03/14 01:45:17;;;;;;;2.53;1.58;;;;;;;20.02;39.72;101829.00;5028936;28;20049;-40
2022/03/14 01:47:45;;;;;;;1.80;1.27;;;;;;;20.01;40.32;101829.13;5030595;28;20528;-39
2022/03/14 01:50:13;;;;;;;1.85;1.50;;;;;;;19.99;40.57;101815.81;5027298;28;20335;-40
2022/03/14 01:52:41;;;;;;;1.75;1.30;;;;;;;19.98;40.42;101824.91;5027599;28;20050;-40
2022/03/14 01:55:08;;;;;;;2.40;1.80;;;;;;;19.96;40.48;101826.88;5026940;28;20054;-40
2022/03/14 01:57:35;;;;;;;1.98;1.75;;;;;;;19.95;40.61;101827.88;5031490;28;20159;-40
2022/03/14 02:00:05;;;;;;;1.80;1.40;;;;;;;19.92;40.67;101829.00;5029264;28;20129;-39
2022/03/14 02:02:32;;;;;;;2.42;1.58;;;;;;;19.90;40.53;101831.00;5028554;28;20156;-40
2022/03/14 02:04:59;;;;;;;2.10;1.50;;;;;;;19.89;40.31;101823.88;5027310;28;20045;-40
2022/03/14 02:07:26;;;;;;;1.85;1.55;;;;;;;19.87;40.35;101820.50;5028367;28;20042;-40
2022/03/14 02:09:53;;;;;;;1.80;1.45;;;;;;;19.83;40.48;101827.16;5025480;28;20378;-40
2022/03/14 02:12:20;;;;;;;2.25;1.30;;;;;;;19.82;40.17;101838.91;5030268;28;20062;-40
2022/03/14 02:14:46;;;;;;;1.70;1.20;;;;;;;19.81;40.13;101841.72;5027584;28;20554;-40
2022/03/14 02:17:16;;;;;;;1.52;1.38;;;;;;;19.82;40.56;101846.09;5026705;28;20049;-40
2022/03/14 02:19:43;;;;;;;2.13;1.45;;;;;;;19.79;40.45;101846.41;5023220;28;20045;-39
2022/03/14 02:22:14;;;;;;;1.30;1.05;;;;;;;19.78;40.11;101850.94;5024917;28;20521;-40
2022/03/14 02:24:43;;;;;;;2.00;1.45;;;;;;;19.77;40.34;101862.69;5027998;28;20138;-40
2022/03/14 02:27:11;;;;;;;1.52;1.20;;;;;;;19.76;40.82;101865.53;5026624;28;20179;-40
2022/03/14 02:29:39;;;;;;;1.73;1.30;;;;;;;19.73;40.79;101864.78;5025356;28;20057;-40
2022/03/14 02:32:07;;;;;;;1.58;1.30;;;;;;;19.72;40.19;101871.16;5030049;28;20056;-40
2022/03/14 02:34:34;;;;;;;1.45;1.20;;;;;;;19.71;40.49;101872.16;5024201;28;20067;-40
2022/03/14 02:37:02;;;;;;;1.83;1.20;;;;;;;19.72;40.24;101873.88;5026193;28;20036;-40
2022/03/14 02:39:31;;;;;;;2.03;1.48;;;;;;;19.70;41.00;101881.25;5028639;28;20041;-40
2022/03/14 02:42:01;;;;;;;1.92;1.42;;;;;;;19.70;40.39;101885.78;5028972;28;20044;-40
2022/03/14 02:44:28;;;;;;;1.50;1.10;;;;;;;19.69;40.34;101875.97;5024968;28;20049;-40
2022/03/14 02:46:55;;;;;;;1.70;1.25;;;;;;;19.68;40.80;101876.97;5023187;28;20139;-41
2022/03/14 02:49:21;;;;;;;1.63;1.30;;;;;;;19.68;40.77;101885.88;5026695;28;20607;-40
2022/03/14 02:51:48;;;;;;;1.60;1.30;;;;;;;19.66;40.51;101885.19;5028635;28;20049;-40
2022/03/14 02:54:14;;;;;;;1.48;1.20;;;;;;;19.66;40.33;101895.09;5025570;28;20124;-40
2022/03/14 02:56:41;;;;;;;1.48;1.10;;;;;;;19.65;40.80;101890.69;5024079;28;20144;-40
2022/03/14 02:59:08;;;;;;;2.10;1.52;;;;;;;19.65;40.34;101896.91;5027338;28;20052;-41
2022/03/14 03:01:35;;;;;;;2.03;1.50;;;;;;;19.65;40.43;101909.53;5030666;28;20041;-41
2022/03/14 03:04:04;;;;;;;2.05;1.40;;;;;;;19.65;40.65;101902.28;5031136;28;20118;-41
2022/03/14 03:06:32;;;;;;;1.27;1.05;;;;;;;19.62;40.86;101901.75;5026623;28;20791;-41
2022/03/14 03:09:02;;;;;;;1.48;1.10;;;;;;;19.61;40.66;101910.75;5030399;28;20033;-41
2022/03/14 03:11:31;;;;;;;1.55;1.35;;;;;;;19.61;40.67;101908.94;5026362;28;20057;-39
2022/03/14 03:13:59;;;;;;;1.67;1.13;;;;;;;19.59;40.59;101920.81;5023083;28;20060;-40
2022/03/14 03:16:26;;;;;;;1.95;1.30;;;;;;;19.60;40.85;101922.50;5028190;28;20064;-40
2022/03/14 03:18:53;;;;;;;1.85;1.38;;;;;;;19.59;40.62;101927.03;5028808;28;20065;-40
2022/03/14 03:21:20;;;;;;;2.53;1.70;;;;;;;19.57;41.03;101923.63;5021400;28;20128;-40
2022/03/14 03:23:46;;;;;;;1.50;1.40;;;;;;;19.56;40.38;101929.16;5028408;28;20049;-40
2022/03/14 03:26:13;;;;;;;2.33;1.73;;;;;;;19.54;41.10;101932.00;5025430;28;20107;-40
2022/03/14 03:28:39;;;;;;;1.60;1.20;;;;;;;19.54;40.53;101932.00;5026550;28;20048;-40
2022/03/14 03:31:09;;;;;;;3.00;1.42;;;;;;;19.51;40.88;101937.63;5022100;28;20060;-40
2022/03/14 03:33:37;;;;;;;1.75;1.33;;;;;;;19.52;41.12;101943.84;5027412;28;20059;-40
2022/03/14 03:36:07;;;;;;;1.60;1.38;;;;;;;19.52;40.56;101944.69;5026963;28;20417;-40
2022/03/14 03:38:35;;;;;;;1.52;1.20;;;;;;;19.52;40.75;101952.78;5024838;28;20133;-40
2022/03/14 03:41:01;;;;;;;2.30;1.38;;;;;;;19.52;40.72;101957.31;5020746;28;20048;-39
2022/03/14 03:43:28;;;;;;;1.42;1.30;;;;;;;19.50;40.88;101960.13;5028684;28;20469;-40
2022/03/14 03:45:55;;;;;;;2.13;1.80;;;;;;;19.49;40.61;101955.72;5022765;28;20041;-40
2022/03/14 03:48:21;;;;;;;2.63;1.30;;;;;;;19.48;40.87;101954.03;5023987;28;20037;-40
2022/03/14 03:50:48;;;;;;;1.95;1.20;;;;;;;19.47;40.31;101961.25;5026343;28;20063;-40
2022/03/14 03:53:14;;;;;;;2.13;1.52;;;;;;;19.46;40.73;101964.09;5028261;28;20052;-41
2022/03/14 03:55:41;;;;;;;1.90;1.25;;;;;;;19.46;40.52;101972.16;5026963;28;20053;-41
2022/03/14 03:58:08;;;;;;;2.42;1.67;;;;;;;19.45;41.01;101973.97;5025238;28;20120;-40
2022/03/14 04:00:34;;;;;;;2.15;1.52;;;;;;;19.43;40.90;101983.16;5024628;28;20136;-41
2022/03/14 04:03:01;;;;;;;3.20;1.42;;;;;;;19.42;41.11;101986.84;5025869;28;20049;-40
2022/03/14 04:05:29;;;;;;;2.28;1.45;;;;;;;19.42;41.42;101987.69;5019927;28;20073;-41
2022/03/14 04:07:59;;;;;;;2.03;1.30;;;;;;;19.41;40.95;101996.72;5024326;28;20055;-41
2022/03/14 04:10:29;;;;;;;1.85;1.30;;;;;;;19.41;40.52;102001.25;5028152;28;20063;-40
2022/03/14 04:12:59;;;;;;;1.83;1.42;;;;;;;19.40;40.94;102010.31;5023992;28;20057;-40
2022/03/14 04:15:27;;;;;;;1.70;1.50;;;;;;;19.39;40.66;102014.84;5020015;28;20133;-40
2022/03/14 04:17:57;;;;;;;1.48;1.27;;;;;;;19.36;40.99;102009.72;5024641;28;20053;-40
2022/03/14 04:20:24;;;;;;;1.50;1.20;;;;;;;19.37;41.21;102021.34;5027658;28;20053;-41
2022/03/14 04:22:52;;;;;;;1.55;1.30;;;;;;;19.37;41.10;102021.34;5025346;28;20051;-41
2022/03/14 04:25:18;;;;;;;1.75;1.63;;;;;;;19.37;40.91;102032.09;5026097;28;20045;-40
2022/03/14 04:27:45;;;;;;;1.92;1.50;;;;;;;19.35;41.24;102028.69;5029534;28;20133;-40
2022/03/14 04:30:11;;;;;;;1.95;1.40;;;;;;;19.33;41.44;102038.72;5026625;28;20132;-41
2022/03/14 04:32:38;;;;;;;1.42;1.33;;;;;;;19.32;40.83;102043.25;5024813;28;20075;-39
2022/03/14 04:35:05;;;;;;;3.47;1.77;;;;;;;19.31;41.34;102057.69;5027869;28;20052;-40
2022/03/14 04:37:32;;;;;;;2.28;1.55;;;;;;;19.30;41.16;102063.19;5024495;28;20232;-41
2022/03/14 04:39:58;;;;;;;1.63;1.20;;;;;;;19.29;41.07;102067.69;5028203;28;20436;-41
2022/03/14 04:42:25;;;;;;;2.35;1.45;;;;;;;19.27;41.15;102069.69;5025135;28;20063;-41
2022/03/14 04:44:54;;;;;;;2.10;1.35;;;;;;;19.26;41.43;102075.16;5031249;28;20395;-41
2022/03/14 04:47:20;;;;;;;2.22;1.50;;;;;;;19.27;41.13;102080.44;5030622;28;20080;-40
2022/03/14 04:49:47;;;;;;;3.90;1.50;;;;;;;19.24;41.17;102091.44;5026322;28;20040;-41
2022/03/14 04:52:14;;;;;;;1.65;1.42;;;;;;;19.21;41.57;102081.78;5031790;28;20079;-40
2022/03/14 04:54:41;;;;;;;1.58;1.48;;;;;;;19.21;41.80;102086.31;5030746;28;20124;-40
2022/03/14 04:57:07;;;;;;;1.50;1.40;;;;;;;19.19;41.35;102083.78;5029046;28;20052;-40
2022/03/14 04:59:34;;;;;;;2.17;1.70;;;;;;;19.18;41.74;102086.59;5030042;28;20132;-41
2022/03/14 05:02:00;;;;;;;1.83;1.55;;;;;;;19.17;41.65;102096.47;5028111;28;20147;-41
2022/03/14 05:04:27;;;;;;;1.40;1.30;;;;;;;19.15;41.48;102106.53;5027884;28;20144;-41
2022/03/14 05:06:54;;;;;;;2.03;1.30;;;;;;;19.12;41.91;102109.47;5025524;28;20144;-40
2022/03/14 05:09:20;;;;;;;2.75;1.52;;;;;;;19.11;42.03;102117.66;5027622;28;20038;-40
2022/03/14 05:11:47;;;;;;;2.17;1.30;;;;;;;19.13;41.68;102113.84;5031520;28;20041;-40
2022/03/14 05:14:15;;;;;;;2.05;1.70;;;;;;;19.11;41.79;102115.81;5032392;28;20238;-40
2022/03/14 05:16:42;;;;;;;1.63;1.30;;;;;;;19.11;41.46;102113.13;5029829;28;20046;-41
2022/03/14 05:19:09;;;;;;;1.67;1.45;;;;;;;19.11;41.69;102120.34;5027418;28;20278;-41
2022/03/14 05:21:35;;;;;;;1.58;1.30;;;;;;;19.08;41.42;102120.59;5028940;28;20052;-41
2022/03/14 05:24:02;;;;;;;1.40;1.30;;;;;;;19.08;41.79;102126.81;5033653;28;20068;-41
2022/03/14 05:26:29;;;;;;;2.70;1.63;;;;;;;19.07;41.74;102133.19;5030999;28;20263;-41
2022/03/14 05:28:55;;;;;;;3.22;1.48;;;;;;;19.05;42.05;102135.13;5033465;28;20638;-40
2022/03/14 05:31:22;;;;;;;1.85;1.52;;;;;;;19.05;42.01;102137.81;5031237;28;20048;-41
2022/03/14 05:33:48;;;;;;;2.30;1.75;;;;;;;19.04;42.28;102136.13;5031667;28;20053;-40
2022/03/14 05:36:15;;;;;;;2.03;1.30;;;;;;;19.03;42.05;102145.19;5032127;28;20128;-40
2022/03/14 05:38:41;;;;;;;2.00;1.60;;;;;;;19.01;42.21;102149.81;5032958;28;20128;-41
2022/03/14 05:41:08;;;;;;;2.95;1.58;;;;;;;18.99;42.08;102160.69;5029762;28;20045;-41
2022/03/14 05:43:37;;;;;;;1.45;1.35;;;;;;;18.98;42.31;102161.69;5033308;28;21405;-40
2022/03/14 05:46:05;;;;;;;2.45;1.95;;;;;;;18.98;42.27;102171.59;5033297;28;20317;-41
2022/03/14 05:48:35;;;;;;;2.63;1.80;;;;;;;18.97;42.59;102175.22;5029104;28;20048;-40
2022/03/14 05:51:04;;;;;;;3.53;2.30;;;;;;;18.96;42.25;102179.75;5032631;28;20045;-41
2022/03/14 05:53:31;;;;;;;2.42;1.63;;;;;;;18.96;42.86;102181.59;5029155;28;20391;-41
2022/03/14 05:55:58;;;;;;;2.90;1.52;;;;;;;18.95;42.90;102182.59;5028396;28;20141;-41
2022/03/14 05:58:25;;;;;;;2.70;1.90;;;;;;;18.95;42.44;102190.66;5035945;28;20054;-40
2022/03/14 06:00:52;;;;;;;2.28;1.58;;;;;;;18.94;42.81;102191.63;5033902;28;20145;-40
2022/03/14 06:03:20;;;;;;;4.22;2.05;;;;;;;18.93;42.69;102201.50;5027667;28;20050;-41
2022/03/14 06:05:49;;;;;;;2.53;1.67;;;;;;;18.93;43.34;102206.88;5029974;28;20045;-41
2022/03/14 06:08:17;;;;;;;2.90;1.90;;;;;;;18.93;42.55;102208.72;5032216;28;20137;-40
2022/03/14 06:10:46;;;;;;;3.88;2.05;;;;;;;18.93;42.75;102231.06;5034363;28;20128;-41
2022/03/14 06:13:13;;;;;;;2.92;2.03;;;;;;;18.92;42.95;102228.50;5031787;28;20049;-41
2022/03/14 06:15:41;;;;;;;3.22;1.90;;;;;;;18.93;42.90;102238.25;5034348;28;20124;-41
2022/03/14 06:18:08;;;;;;;3.72;2.20;;;;;;;18.90;42.58;102244.75;5029186;28;20045;-41
2022/03/14 06:20:35;;;;;;;3.58;2.20;;;;;;;18.90;42.65;102244.75;5032295;28;20049;-41
2022/03/14 06:23:02;;;;;;;3.63;2.35;;;;;;;18.91;42.40;102242.94;5034478;28;20049;-41
2022/03/14 06:25:29;;;;;;;3.10;2.08;;;;;;;18.90;42.68;102250.13;5031757;28;20128;-41
2022/03/14 06:27:55;;;;;;;4.97;2.53;;;;;;;18.90;42.48;102257.34;5032996;28;20056;-40
2022/03/14 06:30:22;;;;;;;3.60;2.20;;;;;;;18.91;42.61;102261.72;5028778;28;20063;-40
2022/03/14 06:32:49;;;;;;;4.22;2.40;;;;;;;18.90;42.75;102268.09;5032037;28;20144;-41
2022/03/14 06:35:17;;;;;;;2.45;1.70;;;;;;;18.89;42.64;102269.03;5032582;28;20412;-41
2022/03/14 06:37:45;;;;;;;4.32;2.47;;;;;;;18.88;42.40;102272.72;5029006;28;20470;-41
2022/03/14 06:40:12;;;;;;;3.80;2.42;;;;;;;18.89;42.44;102274.41;5023117;28;20081;-41
2022/03/14 06:42:41;;;;;;;2.88;2.05;;;;;;;18.88;42.62;102284.31;5025839;28;20054;-41
2022/03/14 06:45:09;;;;;;;4.13;2.60;;;;;;;18.89;42.32;102285.16;5023022;28;20052;-40
2022/03/14 06:47:38;;;;;;;4.50;2.30;;;;;;;18.89;42.36;102290.53;5022589;28;20041;-40
2022/03/14 06:50:06;;;;;;;5.07;2.97;;;;;;;18.87;42.28;102297.88;5027420;28;20579;-40
2022/03/14 06:52:33;;;;;;;3.47;2.47;;;;;;;18.87;42.31;102288.00;5024729;28;20049;-40
2022/03/14 06:55:00;;;;;;;3.15;2.33;;;;;;;18.86;42.11;102291.66;5026192;28;20044;-40
2022/03/14 06:57:27;;;;;;;4.45;2.40;;;;;;;18.87;42.31;102300.56;5025607;28;20044;-41
2022/03/14 06:59:53;;;;;;;4.28;2.80;;;;;;;18.87;42.31;102303.25;5023635;28;20141;-41
2022/03/14 07:02:20;;;;;;;3.10;2.25;;;;;;;18.86;42.55;102304.25;5027182;28;20038;-41
2022/03/14 07:04:47;;;;;;;3.38;2.20;;;;;;;18.86;42.55;102317.69;5022106;28;20071;-41
2022/03/14 07:07:13;;;;;;;3.60;2.03;;;;;;;18.85;42.52;102316.78;5025055;28;20049;-41
2022/03/14 07:09:40;;;;;;;3.10;2.15;;;;;;;18.84;42.58;102317.78;5021489;28;20033;-40
2022/03/14 07:12:10;;;;;;;2.80;2.22;;;;;;;18.85;42.50;102321.31;5023365;28;20124;-40
2022/03/14 07:14:37;;;;;;;3.90;2.30;;;;;;;18.85;42.15;102324.00;5025183;28;20421;-40
2022/03/14 07:17:04;;;;;;;3.22;2.45;;;;;;;18.85;42.04;102329.38;5027393;28;20045;-41
2022/03/14 07:19:34;;;;;;;3.92;2.42;;;;;;;18.85;42.33;102335.59;5025718;28;20049;-41
2022/03/14 07:22:01;;;;;;;3.05;2.17;;;;;;;18.86;42.11;102345.38;5026741;28;20484;-40
2022/03/14 07:24:28;;;;;;;3.08;2.30;;;;;;;18.86;42.23;102341.84;5019034;28;20049;-40
2022/03/14 07:26:54;;;;;;;4.22;2.75;;;;;;;18.86;42.30;102340.03;5022968;28;20067;-40
2022/03/14 07:29:21;;;;;;;3.55;2.17;;;;;;;18.87;42.21;102346.25;5027611;28;20136;-40
2022/03/14 07:31:47;;;;;;;6.35;3.10;;;;;;;18.86;42.52;102353.44;5023588;28;20045;-40
2022/03/14 07:34:14;;;;;;;3.30;2.50;;;;;;;18.88;42.45;102366.75;5023493;28;20132;-40
2022/03/14 07:36:42;;;;;;;3.10;2.45;;;;;;;18.88;42.48;102364.06;5027694;28;20124;-40
2022/03/14 07:39:09;;;;;;;3.70;2.72;;;;;;;18.89;42.10;102355.88;5027344;28;20128;-40
2022/03/14 07:41:36;;;;;;;4.57;3.03;;;;;;;18.91;42.24;102363.81;5023029;28;20045;-40
2022/03/14 07:44:04;;;;;;;4.28;3.08;;;;;;;18.91;41.99;102358.44;5025902;28;20068;-40
2022/03/14 07:46:34;;;;;;;3.45;2.75;;;;;;;18.90;41.92;102360.28;5023229;28;20050;-40
2022/03/14 07:49:01;;;;;;;4.75;2.75;;;;;;;18.94;42.16;102366.28;5024065;28;20099;-40
2022/03/14 07:51:28;;;;;;;4.70;2.38;;;;;;;18.93;42.09;102369.91;5022855;28;20053;-41
2022/03/14 07:53:55;;;;;;;3.72;2.75;;;;;;;18.96;42.30;102372.38;5026453;28;20067;-40
2022/03/14 07:56:21;;;;;;;4.38;3.05;;;;;;;18.96;41.98;102370.53;5023583;28;20045;-40
2022/03/14 07:58:49;;;;;;;3.92;2.47;;;;;;;18.98;41.96;102382.03;5022157;28;20144;-40
2022/03/14 08:01:17;;;;;;;3.83;2.55;;;;;;;18.99;42.04;102377.50;5024306;28;20618;-40
2022/03/14 08:03:45;;;;;;;3.20;2.42;;;;;;;19.03;41.94;102380.81;5021253;28;20128;-40
2022/03/14 08:06:17;;;;;;;3.33;2.42;;;;;;;19.04;42.26;102385.19;5021512;28;20041;-40
2022/03/14 08:08:43;;;;;;;3.65;2.83;;;;;;;19.06;41.90;102388.63;5024045;28;20491;-40
2022/03/14 08:11:13;;;;;;;4.55;2.75;;;;;;;19.07;42.11;102391.19;5024727;28;20052;-40
2022/03/14 08:13:39;;;;;;;4.90;3.20;;;;;;;19.09;41.53;102399.09;5022632;28;20148;-40
2022/03/14 08:16:12;;;;;;;3.33;2.63;;;;;;;19.12;42.01;102399.72;5024979;28;20037;-40
2022/03/14 08:18:40;;;;;;;4.38;2.85;;;;;;;19.11;41.97;102403.41;5021630;28;20083;-40
2022/03/14 08:21:06;;;;;;;3.42;2.55;;;;;;;19.13;41.59;102406.78;5026670;28;20037;-40
2022/03/14 08:23:35;;;;;;;5.57;3.20;;;;;;;19.13;42.01;102403.25;5025599;28;20344;-39
2022/03/14 08:26:01;;;;;;;4.90;3.30;;;;;;;19.15;41.96;102417.44;5020636;28;20176;-40
2022/03/14 08:28:28;;;;;;;5.43;3.83;;;;;;;19.16;41.88;102413.78;5023169;28;20125;-40
2022/03/14 08:30:56;;;;;;;6.25;4.28;;;;;;;19.17;41.97;102419.00;5025217;28;20048;-40
2022/03/14 08:33:24;;;;;;;6.00;4.00;;;;;;;19.17;41.92;102413.63;5028249;28;20048;-40
2022/03/14 08:35:51;;;;;;;6.80;4.18;;;;;;;19.18;41.64;102411.84;5026816;28;20049;-40
2022/03/14 08:38:18;;;;;;;6.15;3.92;;;;;;;19.17;41.58;102424.38;5026002;28;20072;-39
2022/03/14 08:40:44;;;;;;;5.60;4.35;;;;;;;19.19;42.15;102432.34;5025849;28;20120;-39
2022/03/14 08:43:11;;;;;;;6.88;5.18;;;;;;;19.18;41.79;102436.03;5026696;28;20133;-40
2022/03/14 08:45:43;;;;;;;7.47;5.05;;;;;;;19.17;42.18;102445.03;5023636;28;20053;-40
2022/03/14 08:48:13;;;;;;;7.30;5.53;;;;;;;19.16;41.85;102454.94;5023516;28;20151;-40
2022/03/14 08:50:40;;;;;;;5.88;4.57;;;;;;;19.16;41.30;102459.47;5024839;28;20160;-40
2022/03/14 08:53:08;;;;;;;7.45;5.55;;;;;;;19.16;42.11;102460.31;5029082;28;20271;-40
2022/03/14 08:55:34;;;;;;;12.05;7.35;;;;;;;19.16;42.01;102463.00;5027573;28;20050;-40
2022/03/14 08:58:02;;;;;;;11.23;6.80;;;;;;;19.16;41.70;102472.91;5031367;28;20128;-40
2022/03/14 09:00:29;;;;;;;12.57;7.80;;;;;;;19.17;41.75;102478.16;5030221;28;20164;-40
2022/03/14 09:02:56;;;;;;;10.38;7.13;;;;;;;19.19;41.94;102478.91;5025064;28;20064;-40
2022/03/14 09:05:23;;;;;;;10.55;7.85;;;;;;;19.19;41.77;102486.97;5026691;28;20041;-40
2022/03/14 09:07:51;;;;;;;16.33;8.25;;;;;;;19.19;41.90;102481.59;5030047;28;20429;-40
2022/03/14 09:10:17;;;;;;;12.75;8.48;;;;;;;19.20;41.67;102494.03;5030378;28;20136;-40
2022/03/14 09:12:49;;;;;;;14.85;9.75;;;;;;;19.20;41.80;102499.41;5027041;28;20096;-40
2022/03/14 09:15:17;;;;;;;15.93;9.93;;;;;;;19.19;41.54;102494.19;5028070;28;20053;-40
2022/03/14 09:17:49;;;;;;;13.95;9.68;;;;;;;19.19;41.88;102496.88;5025257;28;20136;-40
2022/03/14 09:20:17;;;;;;;15.70;8.82;;;;;;;19.19;41.83;102505.78;5027169;28;20041;-40
2022/03/14 09:22:45;;;;;;;17.17;9.32;;;;;;;19.20;41.93;102503.94;5030887;28;20697;-40
2022/03/14 09:25:14;;;;;;;13.75;9.82;;;;;;;19.21;41.98;102506.50;5030693;28;20073;-40
2022/03/14 09:27:42;;;;;;;18.15;10.77;;;;;;;19.22;41.97;102507.38;5032715;28;20103;-40
2022/03/14 09:30:11;;;;;;;17.90;9.82;;;;;;;19.21;42.27;102511.88;5030410;28;20049;-40
2022/03/14 09:32:37;;;;;;;18.58;11.73;;;;;;;19.21;42.24;102511.03;5032188;28;20638;-40
2022/03/14 09:35:07;;;;;;;17.48;11.15;;;;;;;19.21;41.91;102517.25;5031085;28;20366;-41
2022/03/14 09:37:36;;;;;;;18.55;11.77;;;;;;;19.22;41.95;102518.97;5029048;28;20045;-40
2022/03/14 09:40:11;;;;;;;17.67;11.35;;;;;;;19.22;41.87;102524.38;5031966;28;20044;-40
2022/03/14 09:42:43;;;;;;;20.23;10.32;;;;;;;19.22;42.31;102529.75;5028507;28;20037;-39
2022/03/14 09:45:11;;;;;;;21.17;13.05;;;;;;;19.23;41.53;102528.75;5032899;28;20041;-40
2022/03/14 09:47:49;;;;;;;18.40;11.10;;;;;;;19.23;42.41;102528.75;5033996;28;20321;-39
2022/03/14 09:50:34;;;;;;;16.70;11.10;;;;;;;19.27;42.21;102539.28;5031119;28;20034;-39
2022/03/14 09:53:12;;;;;;;22.55;11.05;;;;;;;19.25;41.76;102542.06;5034587;28;20071;-40
2022/03/14 09:55:43;;;;;;;17.90;11.63;;;;;;;19.25;41.83;102547.44;5034044;28;20389;-39
2022/03/14 09:58:15;;;;;;;19.15;11.52;;;;;;;19.25;42.41;102555.50;5032131;28;20076;-40
2022/03/14 10:00:43;;;;;;;18.90;11.77;;;;;;;19.22;42.03;102559.31;5030652;28;20140;-40
2022/03/14 10:03:16;;;;;;;17.15;11.75;;;;;;;19.23;42.19;102566.38;5029425;28;20049;-39
2022/03/14 10:05:45;;;;;;;19.35;11.45;;;;;;;19.22;42.47;102572.75;5030707;28;20037;-40
2022/03/14 10:08:12;;;;;;;18.20;11.10;;;;;;;19.21;42.34;102576.38;5031834;28;20073;-40
2022/03/14 10:10:39;;;;;;;21.08;11.52;;;;;;;19.21;42.03;102576.38;5031574;28;20064;-39
2022/03/14 10:13:15;;;;;;;19.02;11.63;;;;;;;19.20;42.44;102574.69;5035491;28;20052;-40
2022/03/14 10:15:42;;;;;;;20.13;12.35;;;;;;;19.21;42.26;102580.91;5032452;28;20125;-40
2022/03/14 10:18:17;;;;;;;17.00;11.40;;;;;;;19.21;42.12;102587.13;5026634;28;20071;-39
2022/03/14 10:20:57;;;;;;;17.35;11.48;;;;;;;19.22;42.57;102582.66;5025206;28;20144;-39
2022/03/14 10:23:33;;;;;;;18.67;11.13;;;;;;;19.24;42.40;102589.59;5025874;28;20489;-39
2022/03/14 10:26:00;;;;;;;15.90;10.75;;;;;;;19.23;42.16;102593.28;5029987;28;20303;-40
2022/03/14 10:28:32;;;;;;;17.23;11.05;;;;;;;19.23;42.40;102592.41;5027647;28;20080;-39
2022/03/14 10:31:38;;;;;;;16.00;10.57;;;;;;;19.24;42.09;102597.66;5032205;28;20048;-39
2022/03/14 10:34:14;;;;;;;19.40;10.48;;;;;;;19.27;42.08;102607.34;5032549;28;20120;-39
2022/03/14 10:36:53;;;;;;;17.60;11.23;;;;;;;19.27;42.37;102609.16;5033790;28;20593;-40
2022/03/14 10:39:25;;;;;;;17.60;11.18;;;;;;;19.29;42.20;102615.28;5030024;28;20040;-39
2022/03/14 10:42:07;;;;;;;14.48;10.18;;;;;;;19.28;42.33;102610.88;5023899;28;20128;-39
2022/03/14 10:44:49;;;;;;;16.00;11.77;;;;;;;19.28;42.55;102621.63;5020104;28;20329;-39
2022/03/14 10:47:16;;;;;;;18.10;11.60;;;;;;;19.29;42.13;102620.66;5023354;28;20332;-40
2022/03/14 10:49:43;;;;;;;13.25;9.98;;;;;;;19.29;42.01;102616.13;5023564;28;20137;-40
2022/03/14 10:52:17;;;;;;;16.92;10.60;;;;;;;19.30;42.11;102615.16;5026791;28;20056;-40
2022/03/14 10:54:44;;;;;;;15.82;10.48;;;;;;;19.33;42.16;102612.22;5024904;28;20041;-39
2022/03/14 10:57:12;;;;;;;14.07;10.80;;;;;;;19.37;41.99;102612.84;5025449;28;20132;-40
2022/03/14 10:59:41;;;;;;;14.02;10.77;;;;;;;19.42;42.03;102624.13;5024199;28;20145;-40
2022/03/14 11:02:14;;;;;;;15.98;10.40;;;;;;;19.47;42.20;102619.22;5021280;28;20123;-40
2022/03/14 11:04:55;;;;;;;20.48;11.60;;;;;;;19.52;42.00;102614.34;5022367;28;20042;-40
2022/03/14 11:07:31;;;;;;;19.58;10.13;;;;;;;19.56;42.04;102615.81;5023587;28;20463;-40
2022/03/14 11:10:00;;;;;;;16.33;10.57;;;;;;;19.61;41.53;102620.81;5023766;28;20038;-40
2022/03/14 11:12:29;;;;;;;18.23;11.32;;;;;;;19.64;41.75;102624.16;5026160;28;20041;-40
2022/03/14 11:15:06;;;;;;;14.38;9.90;;;;;;;19.68;42.24;102627.47;5024673;28;20640;-40
2022/03/14 11:17:34;;;;;;;17.25;9.85;;;;;;;19.72;41.89;102631.63;5022200;28;20088;-40
2022/03/14 11:20:22;;;;;;;18.23;9.10;;;;;;;19.75;42.27;102639.47;5019663;28;20329;-40
2022/03/14 11:22:49;;;;;;;12.45;9.02;;;;;;;19.76;42.09;102641.19;5026162;28;20112;-40
2022/03/14 11:25:16;;;;;;;13.98;8.82;;;;;;;19.78;42.36;102649.13;5023281;28;20053;-40
2022/03/14 11:27:45;;;;;;;11.68;8.48;;;;;;;19.79;42.60;102645.47;5019424;28;20306;-40